Detall de PIREP

Printer-friendly versionPDF version

[2011/06/17 16:52:00]
Flight IATA:CT2202
Pilot Number:042
Company ICAO:CAT
Aircraft Type:B463/A
PAX:5
Departing Airport: LFMP
Destination Airport: LFBD
Alternate Airport:LFBO
Online: VATSIM
Route:ORBIL G36 GAI G39 SECHE R17 MIRBA
Flight Level:F190
No Slew and time accel
No pause
Crash detect
Detect pilot in Cockpit between each 30 and 45 minutes
16:52 Zero fuel Weight: 76740 Lbs, Fuel Weight: 20692 Lbs
16:52 VATSIM:LFMP 171600Z 04012KT 9999 FEW040 SCT180 25/18 Q1010 NOSIG
16:52 VATSIM:LFBD 171630Z 26012KT 9999 SCT020 SCT056 19/15 Q1012 TEMPO 25015G25KT
16:52 VOICE CATALONIAN
17:09 Parking Brakes off
17:15 Take-off
17:15 Take off Weight: 96870 Lbs
17:15 Wind: 042 @ 012 Knots Heading: 332
17:15 POS N42 44 43 E002 52 08
17:15 Gear Up: 148 Knots
17:15 Flaps:2 at 148 Knots
17:15 Flaps:1 at 146 Knots
17:16 Flaps:0 at 138 Knots
17:22 TOC
17:22 Fuel Weight:18581 Lb
17:23 TOD
17:23 Fuel Weight: 18515 Lb
17:23 TOC
17:23 Fuel Weight: 18476 Lb
17:29 TOD
17:29 Fuel Weight: 17928 Lb
17:30 Wind:247@037 Knots Heading: 316 Ground Speed: 378 Knots Altitude 18500 ft
17:30 TOC
17:30 Fuel Weight: 17875 Lb
17:31 TOD
17:31 Fuel Weight: 17782 Lb
17:32 TOC
17:32 Fuel Weight: 17745 Lb
17:38 TOD
17:38 Fuel Weight: 17196 Lb
17:45 Wind:239@052 Knots Heading: 292 Ground Speed: 322 Knots Altitude 16620 ft
17:58 Flaps:1 at 160 Knots
18:00 Wind:248@038 Knots Heading: 280 Ground Speed: 136 Knots Altitude 5698 ft
18:01 Flaps:2 at 171 Knots
18:05 Gear Down: 138 Knots
18:05 Flaps:3 at 138 Knots
18:06 Flaps:4 at 138 Knots
18:10 TouchDown:Rate -375 ft/min Speed: 120 Knots
18:10 VATSIM:LFBD 171800Z 27015KT 9999 SCT026 SCT066 BKN100 19/14 Q1013 TEMPO 25015G25KT
18:10 Land
18:10 Wind:263@014 Knots
18:10 Heading: 224
18:10 Flight Duration: 00:55
18:10 Landing Weight: 91970 Lbs
18:10 POS N44 49 51 W000 42 42
18:15 Parking brakes on
18:15 Block to Block Duration: 01:06
18:15 Final Fuel: 15072 Lbls
18:15 Spent Fuel: 5619 Lbls
18:15 Flight Length: 218 NM
18:15 TOD Land Length: 108 NM

Exportar CSV

Powered by Drupal - Modified by Danger4k